This is the latest recevied weather packets stored in our database for station/object XQ6AK-15. If no packets are shown the sender has not sent any weather packets the latest 1 day(s).
| Time | Temp. | Humidity | Pressure | Rain* | Wind** | Luminosity | Snow |
|---|---|---|---|---|---|---|---|
| 1778016832 | 12.78° C | 99% | 1004 hPa | 3.05 mm | 0 m/s | 0 W/m² | - |
| 1778016528 | 12.78° C | 99% | 1003.9 hPa | 1.78 mm | 0 m/s | 0 W/m² | - |
| 1778016225 | 12.78° C | 99% | 1003.5 hPa | 1.27 mm | 0 m/s | 0 W/m² | - |
| 1778015921 | 12.78° C | 99% | 1003.7 hPa | 3.05 mm | 0 m/s | 3 W/m² | - |
| 1778015619 | 12.78° C | 99% | 1003.6 hPa | 3.05 mm | 0.45 m/s, 289° | 6 W/m² | - |
| 1778015316 | 12.78° C | 99% | 1003.7 hPa | 7.11 mm | 0.45 m/s, 48° | 9 W/m² | - |
| 1778015013 | 12.78° C | 99% | 1003.7 hPa | 6.1 mm | 0 m/s | 6 W/m² | - |
| 1778014709 | 12.78° C | 99% | 1003.8 hPa | 4.83 mm | 1.34 m/s, 198° | 10 W/m² | - |
| 1778014408 | 12.78° C | 99% | 1003.7 hPa | 7.87 mm | 0 m/s | 7 W/m² | - |
| 1778014104 | 12.78° C | 99% | 1003.7 hPa | 3.05 mm | 0.45 m/s, 20° | 6 W/m² | - |
| 1778013802 | 12.78° C | 99% | 1003.6 hPa | 3.05 mm | 1.34 m/s, 97° | 6 W/m² | - |
| 1778013499 | 12.78° C | 99% | 1003.9 hPa | 3.05 mm | 0.45 m/s, 243° | 5 W/m² | - |
| 1778013196 | 12.78° C | 99% | 1003.8 hPa | 4.32 mm | 0 m/s | 11 W/m² | - |
| 1778012893 | 12.78° C | 99% | 1003.8 hPa | 3.05 mm | 0.45 m/s, 261° | 15 W/m² | - |
| 1778012589 | 12.78° C | 99% | 1003.8 hPa | 3.05 mm | 0.89 m/s, 339° | 6 W/m² | - |
| 1778012285 | 12.78° C | 99% | 1003.7 hPa | 3.05 mm | 0 m/s | 8 W/m² | - |
| 1778011983 | 12.22° C | 99% | 1003.4 hPa | 3.56 mm | 0.89 m/s, 199° | 16 W/m² | - |
| 1778011681 | 12.22° C | 99% | 1003.3 hPa | 1.78 mm | 1.34 m/s, 199° | 13 W/m² | - |
| 1778011377 | 12.22° C | 99% | 1003.7 hPa | 1.27 mm | 0.45 m/s, 158° | 19 W/m² | - |
| 1778011072 | 12.22° C | 99% | 1003.6 hPa | 1.27 mm | 0 m/s | 17 W/m² | - |
| 1778010771 | 12.22° C | 99% | 1003.7 hPa | 0 mm | 0.45 m/s, 340° | 16 W/m² | - |
| 1778010467 | 12.22° C | 99% | 1003.6 hPa | 1.78 mm | 0 m/s | 17 W/m² | - |
| 1778010164 | 12.22° C | 99% | 1003.6 hPa | 6.1 mm | 0.45 m/s, 86° | 23 W/m² | - |
| 1778009859 | 11.67° C | 99% | 1003.6 hPa | 8.89 mm | 0.45 m/s, 108° | 19 W/m² | - |
| 1778009558 | 11.67° C | 99% | 1003.6 hPa | 6.1 mm | 0.89 m/s, 89° | 26 W/m² | - |
* Rain latest hour (hover to see other rain measurements)
** Current wind speed in m/s (hover to see current wind gust speed)